Time;durP1;ratioP1;P1;durP2;ratioP2;P2;SDS_P1;SDS_P2;PMS_P1;PMS_P2;Temp;Humidity;BMP_temperature;BMP_pressure;BME280_temperature;BME280_humidity;BME280_pressure;Samples;Min_cycle;Max_cycle;Signal;HPM_P1;HPM_P2
2023/02/01 00:01:30;;;;;;;12.50;2.75;;;;;;;8.15;58.57;101955.97;4968866;28;123679;-74
2023/02/01 00:03:57;;;;;;;13.15;3.22;;;;;;;8.13;58.57;101947.22;4969606;28;114974;-74
2023/02/01 00:06:24;;;;;;;15.30;3.17;;;;;;;8.14;58.55;101956.88;4956344;28;113730;-74
2023/02/01 00:08:54;;;;;;;19.58;3.35;;;;;;;8.15;58.98;101961.25;4956304;28;123973;-73
2023/02/01 00:11:22;;;;;;;15.45;3.13;;;;;;;8.15;58.57;101959.47;4955404;28;123469;-74
2023/02/01 00:13:50;;;;;;;18.67;3.45;;;;;;;8.16;58.74;101949.81;4957605;28;113737;-74
2023/02/01 00:16:20;;;;;;;14.20;3.35;;;;;;;8.17;59.04;101940.97;4969004;28;115745;-73
2023/02/01 00:18:49;;;;;;;13.80;3.35;;;;;;;8.19;58.77;101933.91;4961778;28;123734;-73
2023/02/01 00:21:19;;;;;;;15.38;3.28;;;;;;;8.21;59.09;101916.28;4956868;28;124028;-73
2023/02/01 00:23:46;;;;;;;14.38;3.28;;;;;;;8.24;59.11;101908.31;4953334;28;116076;-74
2023/02/01 00:26:16;;;;;;;11.95;3.42;;;;;;;8.27;59.15;101900.34;4965750;28;114849;-73
2023/02/01 00:28:44;;;;;;;13.95;3.00;;;;;;;8.31;59.08;101903.81;4973818;28;125682;-73
2023/02/01 00:31:12;;;;;;;10.73;3.03;;;;;;;8.35;59.29;101908.97;4961515;28;125172;-76
2023/02/01 00:33:39;;;;;;;14.70;4.70;;;;;;;8.37;58.93;101912.47;4957469;28;114420;-74
2023/02/01 00:36:08;;;;;;;21.80;3.63;;;;;;;8.43;59.11;101921.22;4972152;28;114962;-74
2023/02/01 00:38:37;;;;;;;16.08;3.20;;;;;;;8.46;59.01;101921.16;4953785;28;124415;-74
2023/02/01 00:41:13;;;;;;;11.93;3.13;;;;;;;8.47;58.90;101925.53;4969782;28;125033;-74
2023/02/01 00:43:41;;;;;;;18.30;3.47;;;;;;;8.49;58.79;101927.22;4958643;28;115897;-74
2023/02/01 00:46:09;;;;;;;14.75;3.60;;;;;;;8.51;58.97;101929.84;4959508;28;113240;-74
2023/02/01 00:48:37;;;;;;;13.80;3.35;;;;;;;8.53;59.09;101923.66;4968180;28;124486;-74
2023/02/01 00:51:06;;;;;;;13.90;3.00;;;;;;;8.55;58.90;101921.84;4952558;28;123921;-73
2023/02/01 00:53:34;;;;;;;16.13;3.30;;;;;;;8.56;58.93;101909.50;4958445;28;113627;-74
2023/02/01 00:56:01;;;;;;;16.33;3.58;;;;;;;8.57;58.94;101912.13;4961249;28;115984;-74
2023/02/01 00:58:29;;;;;;;13.32;2.85;;;;;;;8.59;58.94;101914.75;4965999;28;124154;-74
2023/02/01 01:01:08;;;;;;;17.42;3.20;;;;;;;8.60;58.65;101913.81;4957131;28;124679;-74
2023/02/01 01:03:47;;;;;;;16.05;3.00;;;;;;;8.61;58.87;101915.59;4966212;28;114848;-73
2023/02/01 01:06:16;;;;;;;14.45;3.25;;;;;;;8.63;58.84;101919.06;4976986;28;115251;-74
2023/02/01 01:08:44;;;;;;;15.02;2.90;;;;;;;8.65;58.38;101917.25;4962254;28;124510;-72
2023/02/01 01:11:14;;;;;;;15.10;2.83;;;;;;;8.68;58.59;101909.28;4957365;28;124392;-74
2023/02/01 01:13:42;;;;;;;20.20;3.45;;;;;;;8.69;58.62;101908.38;4994853;28;116761;-74
2023/02/01 01:16:10;;;;;;;18.23;2.70;;;;;;;8.71;58.50;101910.97;4975613;28;115880;-74
2023/02/01 01:18:38;;;;;;;10.32;2.20;;;;;;;8.73;58.53;101917.97;4976629;28;124404;-74
2023/02/01 01:21:06;;;;;;;14.02;2.13;;;;;;;8.75;58.20;101920.56;4959936;28;124311;-73
2023/02/01 01:23:35;;;;;;;15.90;2.75;;;;;;;8.76;58.29;101898.56;4971799;28;115084;-74
2023/02/01 01:26:07;;;;;;;15.13;2.30;;;;;;;8.76;58.31;101899.41;4955482;28;115164;-74
2023/02/01 01:28:35;;;;;;;16.75;2.55;;;;;;;8.79;58.31;101897.63;4964693;28;124234;-74
2023/02/01 01:31:02;;;;;;;15.55;2.58;;;;;;;8.77;58.03;101890.56;4978609;28;125730;-74
2023/02/01 01:33:30;;;;;;;14.23;2.65;;;;;;;8.79;58.13;101902.91;4957466;28;113477;-74
2023/02/01 01:35:57;;;;;;;13.27;2.60;;;;;;;8.79;57.63;101898.47;4974692;28;114829;-73
2023/02/01 01:38:24;;;;;;;19.80;3.47;;;;;;;8.80;57.98;101904.63;4978615;28;125041;-74
2023/02/01 01:40:51;;;;;;;10.57;2.25;;;;;;;8.79;58.04;101903.75;4976318;28;125108;-73
2023/02/01 01:43:22;;;;;;;14.20;2.33;;;;;;;8.80;57.82;101904.63;4961562;28;114321;-74
2023/02/01 01:45:51;;;;;;;12.07;2.15;;;;;;;8.80;57.73;101899.34;4970322;28;116054;-74
2023/02/01 01:48:29;;;;;;;13.32;2.50;;;;;;;8.79;57.60;101902.91;4976329;28;122801;-74
2023/02/01 01:51:03;;;;;;;11.30;2.38;;;;;;;8.79;57.56;101908.19;4969362;28;124643;-74
2023/02/01 01:53:35;;;;;;;16.77;2.72;;;;;;;8.79;57.58;101902.91;4954234;28;115627;-74
2023/02/01 01:56:03;;;;;;;13.90;2.33;;;;;;;8.79;57.59;101902.91;4979134;28;114669;-73
2023/02/01 01:58:33;;;;;;;16.35;2.38;;;;;;;8.77;57.53;101895.84;4959430;28;123422;-74
2023/02/01 02:01:00;;;;;;;16.52;2.20;;;;;;;8.79;57.48;101903.75;4976242;28;124687;-74
2023/02/01 02:03:34;;;;;;;14.90;2.58;;;;;;;8.79;57.69;101908.19;4962714;28;115216;-74
2023/02/01 02:06:07;;;;;;;14.32;2.58;;;;;;;8.80;57.37;101904.63;4976691;28;116759;-74
2023/02/01 02:08:34;;;;;;;12.00;2.60;;;;;;;8.79;57.32;101908.19;4954136;28;124724;-74
2023/02/01 02:11:01;;;;;;;14.48;2.35;;;;;;;8.77;57.16;101898.50;4967833;28;123666;-74
2023/02/01 02:13:37;;;;;;;13.95;2.47;;;;;;;8.76;57.32;101904.69;4962643;28;114875;-74
2023/02/01 02:16:26;;;;;;;13.57;2.20;;;;;;;8.76;57.32;101898.56;4958610;28;113327;-74
2023/02/01 02:19:42;;;;;;;12.32;2.10;;;;;;;8.74;57.13;101885.38;4976741;28;124944;-74
2023/02/01 02:22:42;;;;;;;11.68;2.00;;;;;;;8.73;57.17;101883.63;4971230;28;123978;-74
2023/02/01 02:25:31;;;;;;;14.57;2.78;;;;;;;8.69;57.34;101876.66;4961737;28;114068;-74
2023/02/01 02:28:36;;;;;;;11.52;2.08;;;;;;;8.66;57.20;101876.72;4975828;28;113419;-74
2023/02/01 02:31:30;;;;;;;8.98;1.92;;;;;;;8.63;57.50;101871.53;4971809;28;125070;-74
2023/02/01 02:34:04;;;;;;;11.27;1.80;;;;;;;8.59;57.27;101867.22;4970780;28;123643;-74
2023/02/01 02:36:41;;;;;;;14.82;2.20;;;;;;;8.57;57.05;101876.94;4972701;28;114219;-73
2023/02/01 02:39:27;;;;;;;10.43;2.22;;;;;;;8.54;57.10;101867.28;4955210;28;113800;-74
2023/02/01 02:48:28;;;;;;;12.52;2.05;;;;;;;8.36;57.04;101862.31;4969392;28;115328;-74
2023/02/01 03:05:26;;;;;;;11.32;2.25;;;;;;;8.16;57.53;101860.09;4976707;28;122641;-74
2023/02/01 03:08:02;;;;;;;12.70;2.15;;;;;;;8.15;57.55;101848.63;4958809;28;124913;-74
2023/02/01 03:10:40;;;;;;;12.07;2.25;;;;;;;8.15;57.43;101853.06;4972321;28;115198;-74
2023/02/01 03:13:32;;;;;;;15.50;2.60;;;;;;;8.16;57.53;101849.53;4969177;28;113064;-73
2023/02/01 03:16:09;;;;;;;15.23;2.60;;;;;;;8.17;57.54;101845.97;4978423;28;125182;-73
2023/02/01 03:18:44;;;;;;;14.18;2.83;;;;;;;8.20;57.60;101845.94;4973721;28;125026;-74
2023/02/01 03:21:19;;;;;;;12.50;2.63;;;;;;;8.22;57.82;101844.13;4983079;28;116414;-74
2023/02/01 03:23:48;;;;;;;;;;;;;;;8.24;57.78;101844.97;4969861;28;113170;-74
2023/02/01 03:26:18;;;;;;;11.55;2.22;;;;;;;8.27;57.76;101831.72;4956533;28;125395;-74
2023/02/01 03:28:54;;;;;;;14.27;2.53;;;;;;;8.30;58.07;101822.88;4972908;28;124509;-74
2023/02/01 03:31:22;;;;;;;18.63;2.60;;;;;;;8.31;58.11;101817.56;4974007;28;114329;-74
2023/02/01 03:33:50;;;;;;;17.55;2.53;;;;;;;8.33;57.96;101826.31;4974777;28;115166;-73
2023/02/01 03:36:29;;;;;;;14.45;2.80;;;;;;;8.34;57.91;101827.19;4978453;28;125211;-73
2023/02/01 03:39:15;;;;;;;15.93;2.65;;;;;;;8.34;57.83;101828.06;4952597;28;124082;-74
2023/02/01 03:41:55;;;;;;;13.65;2.33;;;;;;;8.33;57.88;101822.81;4973863;28;115670;-74
2023/02/01 03:44:29;;;;;;;18.83;2.80;;;;;;;8.32;57.94;101819.28;4974322;28;115148;-73
2023/02/01 03:47:07;;;;;;;23.92;3.20;;;;;;;8.33;57.89;101810.47;4972974;28;124128;-74
2023/02/01 03:49:37;;;;;;;15.32;3.17;;;;;;;8.33;58.08;101821.03;4954175;28;122172;-74
2023/02/01 03:52:11;;;;;;;11.23;2.20;;;;;;;8.33;58.15;101807.84;4957568;28;116117;-74
2023/02/01 03:54:39;;;;;;;11.43;2.78;;;;;;;8.32;57.86;101816.66;4968046;28;115128;-74
2023/02/01 03:57:11;;;;;;;22.33;3.22;;;;;;;8.32;58.11;101806.09;4973573;28;125223;-74
2023/02/01 03:59:44;;;;;;;14.13;2.83;;;;;;;8.32;58.20;101818.44;4953413;28;124597;-74
2023/02/01 04:02:11;;;;;;;13.57;2.58;;;;;;;8.31;57.74;101828.13;4953419;28;115399;-74
2023/02/01 04:04:38;;;;;;;16.15;3.10;;;;;;;8.31;58.17;101828.13;4969941;28;115126;-74
2023/02/01 04:07:06;;;;;;;13.93;2.45;;;;;;;8.31;57.88;101827.25;4966343;28;126148;-74
2023/02/01 04:09:33;;;;;;;12.95;2.33;;;;;;;8.30;57.77;101826.38;4954187;28;125340;-74
2023/02/01 04:12:00;;;;;;;11.98;2.47;;;;;;;8.29;58.03;101824.66;4957631;28;113190;-73
2023/02/01 04:14:27;;;;;;;17.27;3.25;;;;;;;8.29;58.13;101829.94;4954574;28;114749;-74
2023/02/01 04:16:55;;;;;;;15.45;2.42;;;;;;;8.29;58.20;101827.28;4955619;28;124011;-74
2023/02/01 04:19:22;;;;;;;13.32;2.67;;;;;;;8.28;57.84;101822.91;4962269;28;124056;-74
2023/02/01 04:21:49;;;;;;;16.90;2.78;;;;;;;8.27;57.92;101830.84;4958950;28;113486;-74
2023/02/01 04:24:16;;;;;;;11.40;2.70;;;;;;;8.26;58.09;101835.25;4973310;28;114475;-74
2023/02/01 04:26:43;;;;;;;13.98;3.03;;;;;;;8.25;57.88;101828.25;4958218;28;124039;-74
2023/02/01 04:29:10;;;;;;;16.13;3.03;;;;;;;8.24;58.16;101821.22;4958993;28;123964;-74
2023/02/01 04:31:37;;;;;;;15.23;3.22;;;;;;;8.25;58.03;101833.53;4958875;28;114372;-73
2023/02/01 04:34:04;;;;;;;18.23;3.20;;;;;;;8.23;57.85;101830.06;4960128;28;113747;-74
2023/02/01 04:36:31;;;;;;;13.02;2.42;;;;;;;8.22;58.00;101830.94;4966986;28;124383;-74
2023/02/01 04:38:58;;;;;;;14.15;2.67;;;;;;;8.20;58.15;101835.38;4958024;28;124368;-74
2023/02/01 04:41:26;;;;;;;17.63;2.50;;;;;;;8.20;58.09;101840.66;4961511;28;115222;-74
2023/02/01 04:43:53;;;;;;;10.35;2.38;;;;;;;8.20;58.04;101843.28;4974342;28;116118;-74
2023/02/01 04:46:20;;;;;;;19.00;2.30;;;;;;;8.20;58.27;101830.09;4960452;28;123911;-74
2023/02/01 04:48:47;;;;;;;14.95;2.65;;;;;;;8.18;58.15;101843.31;4964305;28;123830;-74
2023/02/01 04:51:14;;;;;;;14.23;2.80;;;;;;;8.18;58.16;101842.47;4962636;28;114251;-74
2023/02/01 04:53:42;;;;;;;13.00;2.35;;;;;;;8.17;58.18;101840.69;4966604;28;114101;-74
2023/02/01 04:56:09;;;;;;;12.43;2.75;;;;;;;8.16;58.24;101839.84;4978397;28;124757;-74
2023/02/01 04:58:36;;;;;;;18.38;2.65;;;;;;;8.16;58.32;101849.53;4961740;28;125033;-76
2023/02/01 05:01:04;;;;;;;19.77;2.60;;;;;;;8.15;58.50;101853.91;4977101;28;114433;-74
2023/02/01 05:03:33;;;;;;;14.25;2.58;;;;;;;8.16;58.23;101854.81;4965527;28;114082;-74
2023/02/01 05:06:00;;;;;;;16.73;2.80;;;;;;;8.16;58.65;101849.53;4959944;28;124540;-74
2023/02/01 05:08:28;;;;;;;13.75;2.60;;;;;;;8.19;58.36;101855.63;4968554;28;123646;-74
2023/02/01 05:10:55;;;;;;;15.77;2.70;;;;;;;8.22;58.69;101844.13;4966638;28;115847;-74
2023/02/01 05:16:08;;;;;;;24.35;3.50;;;;;;;8.26;58.61;101837.88;4976069;28;124971;-74
2023/02/01 05:18:35;;;;;;;17.52;2.90;;;;;;;8.30;58.98;101836.94;4958798;28;125418;-74
2023/02/01 05:21:02;;;;;;;17.00;2.80;;;;;;;8.33;59.04;101834.25;4956003;28;114317;-74
2023/02/01 05:23:31;;;;;;;16.60;2.90;;;;;;;8.37;58.71;101835.91;4954527;28;114304;-74
2023/02/01 05:26:00;;;;;;;12.55;2.50;;;;;;;8.43;58.64;101820.91;4971260;28;124269;-73
2023/02/01 05:28:28;;;;;;;14.98;2.67;;;;;;;8.47;58.66;101822.56;4954074;28;123602;-74
2023/02/01 05:30:55;;;;;;;21.88;3.03;;;;;;;8.51;58.61;101824.22;4962836;28;114367;-74
2023/02/01 05:33:22;;;;;;;16.58;2.92;;;;;;;8.54;58.99;101824.19;4975979;28;116849;-74
2023/02/01 05:35:50;;;;;;;17.27;2.90;;;;;;;8.59;58.73;101832.88;4949648;28;122932;-74
2023/02/01 05:38:17;;;;;;;22.30;3.33;;;;;;;8.62;58.71;101830.16;4972366;28;124381;-74
2023/02/01 05:40:49;;;;;;;15.10;2.72;;;;;;;8.67;58.89;101830.94;4958134;28;115114;-74
2023/02/01 05:43:16;;;;;;;19.23;2.85;;;;;;;8.70;58.90;101836.16;4962028;28;114068;-74
2023/02/01 05:45:43;;;;;;;18.48;2.88;;;;;;;8.71;58.52;101832.59;4960330;28;123458;-74
2023/02/01 05:48:10;;;;;;;19.00;3.38;;;;;;;8.74;58.30;101835.19;4963999;28;124071;-74
2023/02/01 05:50:37;;;;;;;21.33;3.67;;;;;;;8.76;58.59;101835.16;4962538;28;114187;-74
2023/02/01 05:53:08;;;;;;;14.32;2.75;;;;;;;8.76;58.74;101836.03;4959608;28;114250;-74
2023/02/01 05:55:36;;;;;;;12.40;2.72;;;;;;;8.76;58.32;101825.47;4968044;28;123407;-74
2023/02/01 05:58:04;;;;;;;18.85;2.70;;;;;;;8.77;58.25;101824.53;4946141;28;124852;-74
2023/02/01 06:00:31;;;;;;;20.92;3.22;;;;;;;8.76;58.47;101836.03;4964052;28;114322;-74
2023/02/01 06:02:58;;;;;;;17.88;3.00;;;;;;;8.76;58.45;101841.31;4959871;28;114268;-74
2023/02/01 06:05:25;;;;;;;17.90;2.83;;;;;;;8.74;58.52;101848.41;4956832;28;124389;-73
2023/02/01 06:07:53;;;;;;;19.92;2.70;;;;;;;8.75;58.27;101839.56;4953232;28;123702;-74
2023/02/01 06:10:20;;;;;;;19.38;2.80;;;;;;;8.75;58.25;101850.13;4959869;28;115067;-74
2023/02/01 06:12:48;;;;;;;18.45;2.75;;;;;;;8.79;58.54;101847.44;4981115;28;113776;-74
2023/02/01 06:15:15;;;;;;;22.30;3.60;;;;;;;8.80;58.36;101846.50;4961812;28;123973;-74
2023/02/01 06:17:46;;;;;;;13.98;2.90;;;;;;;8.82;58.67;101845.59;4983750;28;124785;-74
2023/02/01 06:20:16;;;;;;;13.07;2.90;;;;;;;8.84;58.47;101848.22;4980676;28;115101;-74
2023/02/01 06:22:43;;;;;;;20.00;2.78;;;;;;;8.86;58.45;101825.28;4955126;28;115416;-74
2023/02/01 06:25:10;;;;;;;17.15;2.97;;;;;;;8.87;58.47;101822.59;4956743;28;123759;-74
2023/02/01 06:27:38;;;;;;;19.65;2.72;;;;;;;8.88;58.62;101828.75;4973014;28;124156;-74
2023/02/01 06:30:06;;;;;;;19.70;3.15;;;;;;;8.90;58.67;101826.94;4974151;28;114278;-73
2023/02/01 06:32:34;;;;;;;15.70;2.78;;;;;;;8.91;58.51;101833.94;4946316;28;113350;-74
2023/02/01 06:35:01;;;;;;;16.88;3.50;;;;;;;8.94;58.71;101833.88;4956106;28;123948;-74
2023/02/01 06:37:29;;;;;;;18.83;2.67;;;;;;;8.95;58.42;101835.63;4966322;28;124608;-74
2023/02/01 06:39:56;;;;;;;16.85;3.10;;;;;;;8.99;58.34;101847.88;4974625;28;114404;-74
2023/02/01 06:42:23;;;;;;;19.10;3.53;;;;;;;9.01;58.36;101853.97;4973643;28;114126;-74
2023/02/01 06:44:50;;;;;;;17.90;2.97;;;;;;;9.03;58.49;101853.97;4958661;28;123860;-74
2023/02/01 06:47:17;;;;;;;16.15;2.92;;;;;;;9.06;58.58;101860.03;4965620;28;123734;-74
2023/02/01 06:49:44;;;;;;;17.48;3.05;;;;;;;9.09;58.27;101865.25;4964413;28;114246;-74
2023/02/01 06:52:11;;;;;;;18.13;3.00;;;;;;;9.12;58.36;101870.47;4961950;28;113700;-73
2023/02/01 06:54:38;;;;;;;15.80;3.03;;;;;;;9.14;58.59;101858.09;4969571;28;123251;-73
2023/02/01 06:57:06;;;;;;;17.52;2.92;;;;;;;9.18;58.71;101861.53;4966883;28;125748;-74
2023/02/01 06:59:33;;;;;;;17.15;2.40;;;;;;;9.21;58.68;101864.13;4979073;28;112316;-74
2023/02/01 07:02:00;;;;;;;11.95;2.67;;;;;;;9.25;58.43;101857.84;4965358;28;113252;-74
2023/02/01 07:04:27;;;;;;;14.43;2.78;;;;;;;9.30;58.63;101863.00;4974772;28;124476;-74
2023/02/01 07:06:54;;;;;;;12.85;2.85;;;;;;;9.33;58.35;101855.03;4976664;28;124771;-74
2023/02/01 07:09:21;;;;;;;19.90;2.63;;;;;;;9.37;58.48;101853.19;4966434;28;114622;-74
2023/02/01 07:11:48;;;;;;;13.35;2.65;;;;;;;9.40;58.30;101853.97;4973470;28;114793;-74
2023/02/01 07:14:15;;;;;;;14.98;2.55;;;;;;;9.42;58.13;101846.88;4966067;28;123462;-75
2023/02/01 07:16:42;;;;;;;18.45;2.75;;;;;;;9.46;58.39;101847.69;4943255;28;124778;-74
2023/02/01 07:19:09;;;;;;;16.83;2.60;;;;;;;9.48;58.28;101852.00;4965175;28;114111;-73
2023/02/01 07:21:36;;;;;;;17.60;2.20;;;;;;;9.49;58.19;101853.75;4982153;28;113877;-74
2023/02/01 07:24:04;;;;;;;8.30;1.85;;;;;;;9.51;58.13;101851.94;4978367;28;125448;-73
2023/02/01 07:26:32;;;;;;;13.20;2.15;;;;;;;9.52;58.22;101851.03;4973102;28;125682;-73
2023/02/01 07:28:59;;;;;;;11.20;2.05;;;;;;;9.55;58.00;101864.19;4961463;28;114578;-74
2023/02/01 07:31:28;;;;;;;11.82;2.13;;;;;;;9.55;57.85;101858.88;4975487;28;113804;-73
2023/02/01 07:33:57;;;;;;;10.63;2.63;;;;;;;9.57;57.87;101863.25;4964615;28;124527;-74
2023/02/01 07:36:24;;;;;;;10.10;2.00;;;;;;;9.58;57.94;101862.38;4971762;28;124508;-74
2023/02/01 07:38:51;;;;;;;14.95;1.75;;;;;;;9.58;58.03;101857.94;4960569;28;114146;-73
2023/02/01 07:41:22;;;;;;;12.98;2.47;;;;;;;9.59;58.07;101872.03;4953035;28;113782;-74
2023/02/01 07:43:52;;;;;;;10.75;2.17;;;;;;;9.59;57.93;101858.78;4957568;28;124249;-74
2023/02/01 07:46:20;;;;;;;8.88;1.80;;;;;;;9.59;57.93;101853.50;4965762;28;123841;-74
2023/02/01 07:48:47;;;;;;;15.65;2.42;;;;;;;9.59;57.90;101866.72;4959029;28;114931;-74
2023/02/01 07:51:16;;;;;;;10.50;1.70;;;;;;;9.58;57.85;101868.50;4974041;28;116064;-73
2023/02/01 07:53:44;;;;;;;9.15;2.08;;;;;;;9.58;57.88;101863.22;4973347;28;125678;-73
2023/02/01 07:56:18;;;;;;;11.52;2.05;;;;;;;9.58;57.86;101862.38;4964570;28;124547;-73
2023/02/01 07:58:53;;;;;;;13.15;1.90;;;;;;;9.58;57.59;101851.78;4985479;28;113548;-73
2023/02/01 08:01:24;;;;;;;12.55;2.03;;;;;;;9.58;57.88;101862.38;4967139;28;114350;-73
2023/02/01 08:03:56;;;;;;;12.32;2.15;;;;;;;9.60;57.96;101861.41;4973900;28;126073;-74
2023/02/01 08:06:24;;;;;;;10.82;1.85;;;;;;;9.60;57.56;101856.13;4976610;28;125005;-74
2023/02/01 08:08:52;;;;;;;14.27;2.63;;;;;;;9.60;57.75;101860.53;4962936;28;113190;-73
2023/02/01 08:11:21;;;;;;;19.70;3.50;;;;;;;9.60;57.57;101861.41;4977112;28;113657;-73
2023/02/01 08:13:49;;;;;;;12.00;2.10;;;;;;;9.59;57.73;101869.38;4957553;28;123517;-73
2023/02/01 08:16:17;;;;;;;9.40;1.95;;;;;;;9.60;57.64;101871.13;4978878;28;124121;-74
2023/02/01 08:18:45;;;;;;;9.70;2.28;;;;;;;9.59;57.57;101879.97;4979799;28;113231;-74
2023/02/01 08:21:17;;;;;;;6.78;1.95;;;;;;;9.60;57.49;101884.34;4981335;28;114897;-74
2023/02/01 08:23:44;;;;;;;14.20;2.50;;;;;;;9.59;57.53;101885.25;4961726;28;122834;-73
2023/02/01 08:26:14;;;;;;;9.68;2.70;;;;;;;9.59;57.68;101880.84;4965763;28;124434;-73
2023/02/01 08:28:44;;;;;;;13.20;2.83;;;;;;;9.59;57.53;101895.81;4985141;28;113781;-74
2023/02/01 08:31:16;;;;;;;7.72;2.17;;;;;;;9.61;57.75;101888.75;4977558;28;115400;-74
2023/02/01 08:33:48;;;;;;;9.88;2.38;;;;;;;9.63;57.72;101881.66;4976820;28;124847;-73
2023/02/01 08:36:16;;;;;;;11.90;2.45;;;;;;;9.67;58.05;101888.59;4966737;28;123948;-74
2023/02/01 08:38:43;;;;;;;13.35;2.55;;;;;;;9.70;57.86;101878.81;4962543;28;113505;-73
2023/02/01 08:41:13;;;;;;;7.32;1.88;;;;;;;9.72;57.96;101887.56;4980945;28;114059;-74
2023/02/01 08:43:41;;;;;;;9.13;2.30;;;;;;;9.77;57.77;101878.66;4965000;28;121765;-73
2023/02/01 08:46:10;;;;;;;9.32;2.17;;;;;;;9.81;57.73;101885.59;4957526;28;124780;-74
2023/02/01 08:48:38;;;;;;;12.10;2.30;;;;;;;9.84;57.82;101880.25;4957393;28;115265;-73
2023/02/01 08:51:08;;;;;;;6.57;2.17;;;;;;;9.85;57.89;101882.84;4961614;28;114564;-73
2023/02/01 08:53:37;;;;;;;9.43;2.58;;;;;;;9.86;57.74;101879.28;4963125;28;124321;-73
2023/02/01 08:56:05;;;;;;;7.50;2.10;;;;;;;9.87;57.67;101881.03;4971548;28;124423;-73
2023/02/01 08:58:32;;;;;;;7.78;1.77;;;;;;;9.88;57.72;101877.47;4977692;28;114374;-73
2023/02/01 09:01:07;;;;;;;13.30;2.42;;;;;;;9.90;57.84;101869.50;4960250;28;114079;-73
2023/02/01 09:03:35;;;;;;;9.10;2.38;;;;;;;9.91;57.91;101864.16;4957788;28;124051;-73
2023/02/01 09:06:08;;;;;;;11.13;1.95;;;;;;;9.97;57.65;101870.22;4979238;28;122859;-73
2023/02/01 09:08:36;;;;;;;12.52;2.92;;;;;;;10.00;57.71;101870.13;4963691;28;114727;-73
2023/02/01 09:11:06;;;;;;;12.25;2.65;;;;;;;10.03;57.60;101864.75;4982747;28;113988;-73
2023/02/01 09:13:35;;;;;;;9.02;1.95;;;;;;;10.07;57.84;101866.41;4982538;28;126353;-73
2023/02/01 09:16:03;;;;;;;9.02;2.40;;;;;;;10.10;57.42;101871.63;4971178;28;124139;-74
2023/02/01 09:18:30;;;;;;;8.43;2.28;;;;;;;10.13;57.74;101866.22;4961022;28;114099;-73
2023/02/01 09:20:58;;;;;;;9.13;2.28;;;;;;;10.16;57.79;101860.00;4967082;28;113752;-73
2023/02/01 09:23:25;;;;;;;13.13;2.75;;;;;;;10.20;57.69;101862.50;4970074;28;125306;-73
2023/02/01 09:25:52;;;;;;;12.32;2.50;;;;;;;10.22;57.47;101865.97;4957724;28;124339;-73
2023/02/01 09:28:19;;;;;;;16.98;2.38;;;;;;;10.24;57.67;101858.88;4974806;28;115243;-73
2023/02/01 09:30:46;;;;;;;12.38;2.42;;;;;;;10.29;57.43;101856.97;4970536;28;114816;-73
2023/02/01 09:33:14;;;;;;;9.88;2.47;;;;;;;10.35;57.57;101849.81;4971040;28;124886;-73
2023/02/01 09:35:41;;;;;;;9.55;2.50;;;;;;;10.39;57.71;101859.41;4970501;28;123847;-73
2023/02/01 09:38:08;;;;;;;8.55;2.28;;;;;;;10.43;57.62;101858.41;4966629;28;114863;-73
2023/02/01 09:40:35;;;;;;;12.23;2.25;;;;;;;10.49;57.56;101864.41;4969937;28;114672;-73
2023/02/01 09:43:29;;;;;;;12.30;2.20;;;;;;;10.52;57.30;101858.13;4971256;28;123815;-73
2023/02/01 09:46:18;;;;;;;13.63;2.75;;;;;;;10.57;57.32;101860.66;4985615;28;123855;-73
2023/02/01 09:48:48;;;;;;;9.35;2.70;;;;;;;10.60;57.36;101850.84;4960032;28;113930;-73
2023/02/01 09:51:23;;;;;;;11.20;2.33;;;;;;;10.63;57.21;101856.06;4983094;28;115216;-73
2023/02/01 09:54:31;;;;;;;12.60;2.30;;;;;;;10.66;57.39;101850.69;4985180;28;123620;-73
2023/02/01 09:57:08;;;;;;;10.65;2.15;;;;;;;10.71;57.35;101843.44;4929589;28;123072;-73
2023/02/01 09:59:42;;;;;;;7.63;2.10;;;;;;;10.76;57.32;101855.72;4968603;28;113372;-73
2023/02/01 10:02:14;;;;;;;12.02;2.67;;;;;;;10.78;57.08;101853.88;4968420;28;113987;-73
2023/02/01 10:04:42;;;;;;;8.73;2.03;;;;;;;10.82;57.22;101855.50;4956107;28;124035;-73
2023/02/01 10:07:30;;;;;;;10.18;2.45;;;;;;;10.87;57.17;101853.59;4967176;28;124871;-73
2023/02/01 10:10:19;;;;;;;9.05;2.05;;;;;;;10.92;57.12;101851.66;4959597;28;115330;-73
2023/02/01 10:13:09;;;;;;;14.25;2.50;;;;;;;10.95;57.03;101851.59;4973387;28;114925;-73
2023/02/01 10:16:00;;;;;;;7.18;2.25;;;;;;;10.99;57.20;101858.53;4966012;28;124031;-73
2023/02/01 10:18:55;;;;;;;11.45;2.42;;;;;;;11.03;57.02;101856.66;4955441;28;124279;-73
2023/02/01 10:21:50;;;;;;;8.98;1.95;;;;;;;11.09;57.09;101865.28;4950944;28;114039;-73
2023/02/01 10:24:17;;;;;;;13.38;2.65;;;;;;;11.18;57.23;101860.59;4949255;28;113982;-73
2023/02/01 10:27:07;;;;;;;5.97;2.25;;;;;;;11.27;57.12;101868.28;4959726;28;124035;-73
2023/02/01 10:29:39;;;;;;;14.45;2.10;;;;;;;11.30;56.80;101869.06;4973021;28;124928;-73
2023/02/01 10:32:13;;;;;;;12.05;2.25;;;;;;;11.34;56.68;101869.81;4953515;28;115373;-73
2023/02/01 10:34:42;;;;;;;7.90;2.00;;;;;;;11.34;56.64;101859.22;4949546;28;116159;-73
2023/02/01 10:37:12;;;;;;;14.25;2.55;;;;;;;11.35;56.39;101863.59;4962897;28;124285;-73
2023/02/01 10:39:39;;;;;;;11.02;2.55;;;;;;;11.35;56.39;101855.63;4979251;28;124379;-73
2023/02/01 10:42:07;;;;;;;14.45;2.65;;;;;;;11.35;56.47;101860.94;4968469;28;115262;-73
2023/02/01 10:44:43;;;;;;;12.73;2.28;;;;;;;11.34;56.22;101875.13;4977844;28;115019;-73
2023/02/01 10:47:10;;;;;;;8.65;2.47;;;;;;;11.34;56.16;101859.22;4967469;28;124813;-73
2023/02/01 10:49:49;;;;;;;9.07;2.35;;;;;;;11.32;56.03;101858.41;4969866;28;124674;-73
2023/02/01 10:52:24;;;;;;;9.20;2.35;;;;;;;11.31;56.10;101854.00;4968056;28;114764;-73
2023/02/01 10:54:52;;;;;;;7.93;2.40;;;;;;;11.30;56.18;101849.59;4981993;28;113192;-73
2023/02/01 10:57:29;;;;;;;10.88;2.30;;;;;;;11.30;55.98;101831.03;4969095;28;124137;-73
2023/02/01 10:59:56;;;;;;;12.85;2.40;;;;;;;11.30;56.05;101868.16;4981880;28;124749;-72
2023/02/01 11:02:30;;;;;;;12.77;2.25;;;;;;;11.28;55.71;101822.25;4985688;28;115151;-73
2023/02/01 11:05:01;;;;;;;9.20;2.30;;;;;;;11.28;55.97;101832.88;4954829;28;114747;-72
2023/02/01 11:07:28;;;;;;;13.38;2.60;;;;;;;11.28;55.90;101816.97;4970309;28;125147;-74
2023/02/01 11:09:57;;;;;;;8.65;2.40;;;;;;;11.28;55.95;101811.66;4985080;28;124327;-73
2023/02/01 11:12:29;;;;;;;9.27;1.85;;;;;;;11.28;55.62;101806.34;4956931;28;114642;-73
2023/02/01 11:15:14;;;;;;;13.00;2.10;;;;;;;11.29;55.63;101802.78;4964214;28;115326;-73
2023/02/01 11:17:45;;;;;;;13.95;2.72;;;;;;;11.30;55.52;101809.81;4954333;28;97331;-73
2023/02/01 11:20:16;;;;;;;13.32;2.95;;;;;;;11.32;55.54;101813.31;4968681;28;124861;-73
2023/02/01 11:23:02;;;;;;;13.38;2.20;;;;;;;11.32;55.24;101810.66;4966438;28;115603;-73
2023/02/01 11:25:34;;;;;;;12.60;2.20;;;;;;;11.32;55.20;101808.00;4972040;28;114027;-74
2023/02/01 11:28:02;;;;;;;17.77;2.38;;;;;;;11.30;54.88;101804.50;4956588;28;123959;-73
2023/02/01 11:30:34;;;;;;;12.70;2.67;;;;;;;11.30;54.99;101809.81;4976417;28;123833;-73
2023/02/01 11:33:04;;;;;;;12.50;2.30;;;;;;;11.30;54.94;101805.41;4953173;28;114223;-73
2023/02/01 11:35:38;;;;;;;15.13;2.22;;;;;;;11.28;55.12;101812.53;4973643;28;115124;-73
2023/02/01 11:38:21;;;;;;;11.95;2.20;;;;;;;11.28;55.08;101811.66;4958293;28;124184;-73
2023/02/01 11:40:49;;;;;;;13.32;2.10;;;;;;;11.29;55.00;101793.03;4979665;28;124952;-70
2023/02/01 11:43:27;;;;;;;15.70;2.10;;;;;;;11.29;54.80;101779.78;4960953;28;114288;-72
2023/02/01 11:45:59;;;;;;;14.30;2.63;;;;;;;11.31;54.98;101790.34;4972458;28;113996;-71
2023/02/01 11:48:31;;;;;;;15.68;2.28;;;;;;;11.32;55.02;101781.50;4950678;28;124421;-74
2023/02/01 11:51:10;;;;;;;16.10;2.40;;;;;;;11.33;54.87;101783.22;4971313;28;123528;-73
2023/02/01 11:54:14;;;;;;;12.32;2.20;;;;;;;11.34;54.68;101795.56;4974133;28;114447;-74
2023/02/01 11:57:15;;;;;;;10.05;2.10;;;;;;;11.34;54.68;101795.56;4989248;28;115242;-73
2023/02/01 12:00:00;;;;;;;12.25;2.17;;;;;;;11.33;54.83;101793.81;4971239;28;123589;-73